sensor_id;sensor_type;location;lat;lon;timestamp;P1;durP1;ratioP1;P2;durP2;ratioP2
50976;SDS011;36992;48.200;12.418;2023-02-15T00:02:26;13.18;;;5.97;;
50976;SDS011;36992;48.200;12.418;2023-02-15T00:04:54;9.38;;;4.68;;
50976;SDS011;36992;48.200;12.418;2023-02-15T00:07:21;10.40;;;4.57;;
50976;SDS011;36992;48.200;12.418;2023-02-15T00:09:47;7.90;;;4.18;;
50976;SDS011;36992;48.200;12.418;2023-02-15T00:12:15;12.15;;;5.45;;
50976;SDS011;36992;48.200;12.418;2023-02-15T00:14:42;11.68;;;5.40;;
50976;SDS011;36992;48.200;12.418;2023-02-15T00:17:08;14.38;;;6.30;;
50976;SDS011;36992;48.200;12.418;2023-02-15T00:19:35;12.73;;;5.07;;
50976;SDS011;36992;48.200;12.418;2023-02-15T00:22:03;11.98;;;5.68;;
50976;SDS011;36992;48.200;12.418;2023-02-15T00:24:30;8.27;;;4.40;;
50976;SDS011;36992;48.200;12.418;2023-02-15T00:26:56;10.75;;;5.38;;
50976;SDS011;36992;48.200;12.418;2023-02-15T00:29:23;9.43;;;4.82;;
50976;SDS011;36992;48.200;12.418;2023-02-15T00:31:50;10.65;;;5.38;;
50976;SDS011;36992;48.200;12.418;2023-02-15T00:34:18;10.95;;;4.95;;
50976;SDS011;36992;48.200;12.418;2023-02-15T00:36:45;10.18;;;4.65;;
50976;SDS011;36992;48.200;12.418;2023-02-15T00:39:13;9.55;;;4.45;;
50976;SDS011;36992;48.200;12.418;2023-02-15T00:41:41;10.13;;;5.15;;
50976;SDS011;36992;48.200;12.418;2023-02-15T00:44:08;11.25;;;5.53;;
50976;SDS011;36992;48.200;12.418;2023-02-15T00:46:35;10.93;;;4.97;;
50976;SDS011;36992;48.200;12.418;2023-02-15T00:49:02;9.75;;;4.95;;
50976;SDS011;36992;48.200;12.418;2023-02-15T00:51:29;10.80;;;4.93;;
50976;SDS011;36992;48.200;12.418;2023-02-15T00:53:56;12.77;;;4.97;;
50976;SDS011;36992;48.200;12.418;2023-02-15T00:56:24;11.40;;;5.15;;
50976;SDS011;36992;48.200;12.418;2023-02-15T00:58:53;10.40;;;4.43;;
50976;SDS011;36992;48.200;12.418;2023-02-15T01:01:20;9.52;;;4.25;;
50976;SDS011;36992;48.200;12.418;2023-02-15T01:03:47;10.45;;;5.72;;
50976;SDS011;36992;48.200;12.418;2023-02-15T01:06:14;10.48;;;5.28;;
50976;SDS011;36992;48.200;12.418;2023-02-15T01:08:41;10.93;;;4.97;;
50976;SDS011;36992;48.200;12.418;2023-02-15T01:11:08;8.95;;;4.90;;
50976;SDS011;36992;48.200;12.418;2023-02-15T01:13:39;8.52;;;3.63;;
50976;SDS011;36992;48.200;12.418;2023-02-15T01:16:06;10.10;;;4.70;;
50976;SDS011;36992;48.200;12.418;2023-02-15T01:18:33;9.35;;;4.45;;
50976;SDS011;36992;48.200;12.418;2023-02-15T01:21:08;8.98;;;4.35;;
50976;SDS011;36992;48.200;12.418;2023-02-15T01:23:35;9.75;;;4.47;;
50976;SDS011;36992;48.200;12.418;2023-02-15T01:26:02;9.68;;;5.10;;
50976;SDS011;36992;48.200;12.418;2023-02-15T01:28:29;9.27;;;4.43;;
50976;SDS011;36992;48.200;12.418;2023-02-15T01:30:57;9.52;;;4.20;;
50976;SDS011;36992;48.200;12.418;2023-02-15T01:33:24;6.97;;;4.03;;
50976;SDS011;36992;48.200;12.418;2023-02-15T01:35:55;6.85;;;3.08;;
50976;SDS011;36992;48.200;12.418;2023-02-15T01:38:22;7.35;;;3.83;;
50976;SDS011;36992;48.200;12.418;2023-02-15T01:40:50;6.97;;;3.90;;
50976;SDS011;36992;48.200;12.418;2023-02-15T01:43:16;9.25;;;4.05;;
50976;SDS011;36992;48.200;12.418;2023-02-15T01:45:43;8.40;;;4.18;;
50976;SDS011;36992;48.200;12.418;2023-02-15T01:48:17;6.93;;;3.25;;
50976;SDS011;36992;48.200;12.418;2023-02-15T01:50:47;8.10;;;4.00;;
50976;SDS011;36992;48.200;12.418;2023-02-15T01:53:17;6.55;;;3.83;;
50976;SDS011;36992;48.200;12.418;2023-02-15T01:55:48;7.15;;;3.63;;
50976;SDS011;36992;48.200;12.418;2023-02-15T01:58:19;8.00;;;3.83;;
50976;SDS011;36992;48.200;12.418;2023-02-15T02:00:47;7.18;;;3.22;;
50976;SDS011;36992;48.200;12.418;2023-02-15T02:03:14;7.50;;;4.10;;
50976;SDS011;36992;48.200;12.418;2023-02-15T02:05:42;8.15;;;3.88;;
50976;SDS011;36992;48.200;12.418;2023-02-15T02:08:08;6.78;;;3.33;;
50976;SDS011;36992;48.200;12.418;2023-02-15T02:10:35;9.07;;;3.30;;
50976;SDS011;36992;48.200;12.418;2023-02-15T02:13:03;8.85;;;4.78;;
50976;SDS011;36992;48.200;12.418;2023-02-15T02:15:33;9.43;;;4.68;;
50976;SDS011;36992;48.200;12.418;2023-02-15T02:18:10;11.15;;;4.75;;
50976;SDS011;36992;48.200;12.418;2023-02-15T02:21:09;7.15;;;3.92;;
50976;SDS011;36992;48.200;12.418;2023-02-15T02:23:58;6.15;;;3.30;;
50976;SDS011;36992;48.200;12.418;2023-02-15T02:29:47;8.68;;;4.10;;
50976;SDS011;36992;48.200;12.418;2023-02-15T02:35:38;7.22;;;3.40;;
50976;SDS011;36992;48.200;12.418;2023-02-15T02:38:15;8.87;;;3.90;;
50976;SDS011;36992;48.200;12.418;2023-02-15T02:40:50;7.47;;;3.30;;
50976;SDS011;36992;48.200;12.418;2023-02-15T02:43:21;7.60;;;4.05;;
50976;SDS011;36992;48.200;12.418;2023-02-15T02:45:55;7.85;;;4.78;;
50976;SDS011;36992;48.200;12.418;2023-02-15T02:48:25;8.80;;;3.67;;
50976;SDS011;36992;48.200;12.418;2023-02-15T02:50:55;9.10;;;4.82;;
50976;SDS011;36992;48.200;12.418;2023-02-15T02:53:22;10.50;;;5.22;;
50976;SDS011;36992;48.200;12.418;2023-02-15T02:55:49;8.07;;;4.10;;
50976;SDS011;36992;48.200;12.418;2023-02-15T02:58:21;7.28;;;3.65;;
50976;SDS011;36992;48.200;12.418;2023-02-15T03:00:53;7.38;;;3.47;;
50976;SDS011;36992;48.200;12.418;2023-02-15T03:03:23;8.27;;;4.15;;
50976;SDS011;36992;48.200;12.418;2023-02-15T03:05:57;9.25;;;4.13;;
50976;SDS011;36992;48.200;12.418;2023-02-15T03:08:26;7.13;;;4.00;;
50976;SDS011;36992;48.200;12.418;2023-02-15T03:10:59;9.35;;;4.63;;
50976;SDS011;36992;48.200;12.418;2023-02-15T03:13:29;7.78;;;3.50;;
50976;SDS011;36992;48.200;12.418;2023-02-15T03:15:56;7.35;;;3.95;;
50976;SDS011;36992;48.200;12.418;2023-02-15T03:18:43;6.68;;;3.22;;
50976;SDS011;36992;48.200;12.418;2023-02-15T03:21:17;6.97;;;3.95;;
50976;SDS011;36992;48.200;12.418;2023-02-15T03:23:48;7.18;;;3.28;;
50976;SDS011;36992;48.200;12.418;2023-02-15T03:26:18;9.05;;;4.22;;
50976;SDS011;36992;48.200;12.418;2023-02-15T03:28:48;8.32;;;4.20;;
50976;SDS011;36992;48.200;12.418;2023-02-15T03:31:17;8.18;;;3.72;;
50976;SDS011;36992;48.200;12.418;2023-02-15T03:33:49;8.55;;;4.47;;
50976;SDS011;36992;48.200;12.418;2023-02-15T03:36:18;6.65;;;3.47;;
50976;SDS011;36992;48.200;12.418;2023-02-15T03:38:49;8.77;;;3.97;;
50976;SDS011;36992;48.200;12.418;2023-02-15T03:43:53;9.00;;;3.92;;
50976;SDS011;36992;48.200;12.418;2023-02-15T03:46:23;8.15;;;4.18;;
50976;SDS011;36992;48.200;12.418;2023-02-15T03:48:56;7.03;;;3.42;;
50976;SDS011;36992;48.200;12.418;2023-02-15T03:51:28;9.77;;;3.97;;
50976;SDS011;36992;48.200;12.418;2023-02-15T03:54:01;6.00;;;3.17;;
50976;SDS011;36992;48.200;12.418;2023-02-15T03:56:30;7.28;;;3.72;;
50976;SDS011;36992;48.200;12.418;2023-02-15T03:58:59;9.50;;;4.90;;
50976;SDS011;36992;48.200;12.418;2023-02-15T04:01:45;8.43;;;4.47;;
50976;SDS011;36992;48.200;12.418;2023-02-15T04:04:28;6.45;;;3.38;;
50976;SDS011;36992;48.200;12.418;2023-02-15T04:06:59;7.68;;;4.13;;
50976;SDS011;36992;48.200;12.418;2023-02-15T04:09:26;7.13;;;3.55;;
50976;SDS011;36992;48.200;12.418;2023-02-15T04:12:10;6.82;;;3.85;;
50976;SDS011;36992;48.200;12.418;2023-02-15T04:14:37;10.30;;;4.53;;
50976;SDS011;36992;48.200;12.418;2023-02-15T04:17:21;17.00;;;5.35;;
50976;SDS011;36992;48.200;12.418;2023-02-15T04:19:49;8.88;;;4.97;;
50976;SDS011;36992;48.200;12.418;2023-02-15T04:22:33;8.43;;;3.70;;
50976;SDS011;36992;48.200;12.418;2023-02-15T04:25:17;8.48;;;4.13;;
50976;SDS011;36992;48.200;12.418;2023-02-15T04:27:44;8.30;;;3.92;;
50976;SDS011;36992;48.200;12.418;2023-02-15T04:30:12;9.35;;;4.88;;
50976;SDS011;36992;48.200;12.418;2023-02-15T04:32:40;9.23;;;4.80;;
50976;SDS011;36992;48.200;12.418;2023-02-15T04:35:08;10.43;;;4.50;;
50976;SDS011;36992;48.200;12.418;2023-02-15T04:37:35;8.10;;;4.50;;
50976;SDS011;36992;48.200;12.418;2023-02-15T04:40:01;9.40;;;4.20;;
50976;SDS011;36992;48.200;12.418;2023-02-15T04:42:28;10.63;;;4.72;;
50976;SDS011;36992;48.200;12.418;2023-02-15T04:44:54;9.80;;;4.75;;
50976;SDS011;36992;48.200;12.418;2023-02-15T04:47:21;10.88;;;4.78;;
50976;SDS011;36992;48.200;12.418;2023-02-15T04:49:48;8.77;;;4.93;;
50976;SDS011;36992;48.200;12.418;2023-02-15T04:52:16;11.27;;;5.53;;
50976;SDS011;36992;48.200;12.418;2023-02-15T04:54:43;9.93;;;4.90;;
50976;SDS011;36992;48.200;12.418;2023-02-15T04:57:09;9.52;;;4.57;;
50976;SDS011;36992;48.200;12.418;2023-02-15T04:59:36;9.73;;;5.05;;
50976;SDS011;36992;48.200;12.418;2023-02-15T05:02:02;9.23;;;4.35;;
50976;SDS011;36992;48.200;12.418;2023-02-15T05:04:29;10.68;;;4.65;;
50976;SDS011;36992;48.200;12.418;2023-02-15T05:06:56;9.60;;;4.65;;
50976;SDS011;36992;48.200;12.418;2023-02-15T05:09:24;9.30;;;4.53;;
50976;SDS011;36992;48.200;12.418;2023-02-15T05:11:50;10.07;;;5.45;;
50976;SDS011;36992;48.200;12.418;2023-02-15T05:14:17;8.85;;;3.70;;
50976;SDS011;36992;48.200;12.418;2023-02-15T05:16:44;7.28;;;3.50;;
50976;SDS011;36992;48.200;12.418;2023-02-15T05:19:10;9.68;;;4.28;;
50976;SDS011;36992;48.200;12.418;2023-02-15T05:21:37;10.50;;;4.65;;
50976;SDS011;36992;48.200;12.418;2023-02-15T05:24:03;9.18;;;4.50;;
50976;SDS011;36992;48.200;12.418;2023-02-15T05:26:52;8.48;;;4.30;;
50976;SDS011;36992;48.200;12.418;2023-02-15T05:29:35;9.50;;;4.38;;
50976;SDS011;36992;48.200;12.418;2023-02-15T05:32:02;9.80;;;4.18;;
50976;SDS011;36992;48.200;12.418;2023-02-15T05:34:30;9.20;;;5.07;;
50976;SDS011;36992;48.200;12.418;2023-02-15T05:36:56;8.43;;;4.03;;
50976;SDS011;36992;48.200;12.418;2023-02-15T05:39:23;9.30;;;4.72;;
50976;SDS011;36992;48.200;12.418;2023-02-15T05:41:49;9.65;;;4.80;;
50976;SDS011;36992;48.200;12.418;2023-02-15T05:44:17;10.80;;;5.35;;
50976;SDS011;36992;48.200;12.418;2023-02-15T05:46:44;7.53;;;3.97;;
50976;SDS011;36992;48.200;12.418;2023-02-15T05:49:10;9.15;;;4.43;;
50976;SDS011;36992;48.200;12.418;2023-02-15T05:51:37;8.63;;;4.40;;
50976;SDS011;36992;48.200;12.418;2023-02-15T05:54:03;11.05;;;5.18;;
50976;SDS011;36992;48.200;12.418;2023-02-15T05:56:30;11.15;;;5.18;;
50976;SDS011;36992;48.200;12.418;2023-02-15T05:58:58;8.82;;;4.38;;
50976;SDS011;36992;48.200;12.418;2023-02-15T06:01:25;8.13;;;4.35;;
50976;SDS011;36992;48.200;12.418;2023-02-15T06:03:51;9.60;;;4.70;;
50976;SDS011;36992;48.200;12.418;2023-02-15T06:06:19;8.05;;;4.18;;
50976;SDS011;36992;48.200;12.418;2023-02-15T06:08:45;10.10;;;4.68;;
50976;SDS011;36992;48.200;12.418;2023-02-15T06:11:12;9.18;;;4.93;;
50976;SDS011;36992;48.200;12.418;2023-02-15T06:13:38;9.60;;;5.28;;
50976;SDS011;36992;48.200;12.418;2023-02-15T06:16:06;11.15;;;4.32;;
50976;SDS011;36992;48.200;12.418;2023-02-15T06:18:33;8.98;;;4.38;;
50976;SDS011;36992;48.200;12.418;2023-02-15T06:21:00;8.77;;;4.05;;
50976;SDS011;36992;48.200;12.418;2023-02-15T06:23:27;10.50;;;4.95;;
50976;SDS011;36992;48.200;12.418;2023-02-15T06:25:54;8.02;;;4.40;;
50976;SDS011;36992;48.200;12.418;2023-02-15T06:28:20;9.95;;;4.68;;
50976;SDS011;36992;48.200;12.418;2023-02-15T06:30:47;10.35;;;4.55;;
50976;SDS011;36992;48.200;12.418;2023-02-15T06:33:15;10.40;;;5.13;;
50976;SDS011;36992;48.200;12.418;2023-02-15T06:35:41;7.47;;;4.18;;
50976;SDS011;36992;48.200;12.418;2023-02-15T06:38:08;7.10;;;3.95;;
50976;SDS011;36992;48.200;12.418;2023-02-15T06:40:34;7.45;;;3.97;;
50976;SDS011;36992;48.200;12.418;2023-02-15T06:43:01;8.15;;;3.72;;
50976;SDS011;36992;48.200;12.418;2023-02-15T06:45:28;8.10;;;3.90;;
50976;SDS011;36992;48.200;12.418;2023-02-15T06:47:54;7.97;;;4.18;;
50976;SDS011;36992;48.200;12.418;2023-02-15T06:50:22;9.73;;;4.18;;
50976;SDS011;36992;48.200;12.418;2023-02-15T06:52:49;9.32;;;4.85;;
50976;SDS011;36992;48.200;12.418;2023-02-15T06:55:15;9.23;;;4.38;;
50976;SDS011;36992;48.200;12.418;2023-02-15T06:57:42;7.85;;;4.25;;
50976;SDS011;36992;48.200;12.418;2023-02-15T07:00:09;8.73;;;4.28;;
50976;SDS011;36992;48.200;12.418;2023-02-15T07:02:36;8.68;;;3.83;;
50976;SDS011;36992;48.200;12.418;2023-02-15T07:05:03;8.27;;;3.50;;
50976;SDS011;36992;48.200;12.418;2023-02-15T07:07:32;8.93;;;5.03;;
50976;SDS011;36992;48.200;12.418;2023-02-15T07:09:58;6.75;;;3.20;;
50976;SDS011;36992;48.200;12.418;2023-02-15T07:12:25;8.18;;;3.65;;
50976;SDS011;36992;48.200;12.418;2023-02-15T07:15:06;7.68;;;4.15;;
50976;SDS011;36992;48.200;12.418;2023-02-15T07:17:34;7.57;;;3.53;;
50976;SDS011;36992;48.200;12.418;2023-02-15T07:20:01;6.15;;;3.38;;
50976;SDS011;36992;48.200;12.418;2023-02-15T07:22:28;7.10;;;3.28;;
50976;SDS011;36992;48.200;12.418;2023-02-15T07:24:56;7.05;;;3.45;;
50976;SDS011;36992;48.200;12.418;2023-02-15T07:27:22;6.05;;;2.78;;
50976;SDS011;36992;48.200;12.418;2023-02-15T07:29:49;6.78;;;3.50;;
50976;SDS011;36992;48.200;12.418;2023-02-15T07:32:16;5.28;;;3.03;;
50976;SDS011;36992;48.200;12.418;2023-02-15T07:34:42;6.43;;;3.15;;
50976;SDS011;36992;48.200;12.418;2023-02-15T07:37:09;5.85;;;3.22;;
50976;SDS011;36992;48.200;12.418;2023-02-15T07:39:35;6.35;;;3.20;;
50976;SDS011;36992;48.200;12.418;2023-02-15T07:42:03;5.70;;;3.15;;
50976;SDS011;36992;48.200;12.418;2023-02-15T07:44:30;6.85;;;3.30;;
50976;SDS011;36992;48.200;12.418;2023-02-15T07:46:57;5.32;;;2.70;;
50976;SDS011;36992;48.200;12.418;2023-02-15T07:49:23;5.55;;;2.80;;
50976;SDS011;36992;48.200;12.418;2023-02-15T07:51:50;5.32;;;2.58;;
50976;SDS011;36992;48.200;12.418;2023-02-15T07:54:16;6.10;;;3.05;;
50976;SDS011;36992;48.200;12.418;2023-02-15T07:56:43;5.15;;;2.22;;
50976;SDS011;36992;48.200;12.418;2023-02-15T07:59:11;5.95;;;2.88;;
50976;SDS011;36992;48.200;12.418;2023-02-15T08:01:38;5.43;;;2.92;;
50976;SDS011;36992;48.200;12.418;2023-02-15T08:04:05;5.50;;;2.67;;
50976;SDS011;36992;48.200;12.418;2023-02-15T08:06:35;4.25;;;2.50;;
50976;SDS011;36992;48.200;12.418;2023-02-15T08:09:03;4.43;;;2.15;;
50976;SDS011;36992;48.200;12.418;2023-02-15T08:11:31;4.35;;;2.08;;
50976;SDS011;36992;48.200;12.418;2023-02-15T08:14:05;4.43;;;2.20;;
50976;SDS011;36992;48.200;12.418;2023-02-15T08:16:35;5.60;;;2.92;;
50976;SDS011;36992;48.200;12.418;2023-02-15T08:19:04;5.40;;;2.78;;
50976;SDS011;36992;48.200;12.418;2023-02-15T08:21:33;4.93;;;2.45;;
50976;SDS011;36992;48.200;12.418;2023-02-15T08:24:01;4.10;;;2.08;;
50976;SDS011;36992;48.200;12.418;2023-02-15T08:26:28;4.82;;;2.38;;
50976;SDS011;36992;48.200;12.418;2023-02-15T08:28:56;5.85;;;2.97;;
50976;SDS011;36992;48.200;12.418;2023-02-15T08:31:23;5.15;;;2.88;;
50976;SDS011;36992;48.200;12.418;2023-02-15T08:33:52;3.90;;;2.10;;
50976;SDS011;36992;48.200;12.418;2023-02-15T08:36:21;5.65;;;2.70;;
50976;SDS011;36992;48.200;12.418;2023-02-15T08:38:50;4.15;;;2.22;;
50976;SDS011;36992;48.200;12.418;2023-02-15T08:41:17;4.28;;;2.25;;
50976;SDS011;36992;48.200;12.418;2023-02-15T08:43:46;6.00;;;2.20;;
50976;SDS011;36992;48.200;12.418;2023-02-15T08:46:16;5.63;;;3.22;;
50976;SDS011;36992;48.200;12.418;2023-02-15T08:48:44;6.65;;;2.67;;
50976;SDS011;36992;48.200;12.418;2023-02-15T08:51:13;4.18;;;2.15;;
50976;SDS011;36992;48.200;12.418;2023-02-15T08:53:42;4.68;;;2.33;;
50976;SDS011;36992;48.200;12.418;2023-02-15T08:56:10;3.70;;;1.83;;
50976;SDS011;36992;48.200;12.418;2023-02-15T08:58:37;4.88;;;2.33;;
50976;SDS011;36992;48.200;12.418;2023-02-15T09:01:08;4.22;;;2.35;;
50976;SDS011;36992;48.200;12.418;2023-02-15T09:03:35;5.47;;;2.40;;
50976;SDS011;36992;48.200;12.418;2023-02-15T09:06:02;5.97;;;3.13;;
50976;SDS011;36992;48.200;12.418;2023-02-15T09:08:30;3.58;;;1.75;;
50976;SDS011;36992;48.200;12.418;2023-02-15T09:11:04;5.65;;;2.90;;
50976;SDS011;36992;48.200;12.418;2023-02-15T09:13:32;2.55;;;1.35;;
50976;SDS011;36992;48.200;12.418;2023-02-15T09:15:59;3.13;;;1.48;;
50976;SDS011;36992;48.200;12.418;2023-02-15T09:18:26;3.88;;;1.67;;
50976;SDS011;36992;48.200;12.418;2023-02-15T09:20:53;4.95;;;2.30;;
50976;SDS011;36992;48.200;12.418;2023-02-15T09:23:20;5.03;;;2.70;;
50976;SDS011;36992;48.200;12.418;2023-02-15T09:25:48;4.82;;;2.10;;
50976;SDS011;36992;48.200;12.418;2023-02-15T09:28:14;4.00;;;1.65;;
50976;SDS011;36992;48.200;12.418;2023-02-15T09:30:41;3.15;;;1.73;;
50976;SDS011;36992;48.200;12.418;2023-02-15T09:33:07;3.97;;;2.15;;
50976;SDS011;36992;48.200;12.418;2023-02-15T09:35:34;4.40;;;1.95;;
50976;SDS011;36992;48.200;12.418;2023-02-15T09:38:00;4.78;;;2.30;;
50976;SDS011;36992;48.200;12.418;2023-02-15T09:40:28;4.18;;;2.22;;
50976;SDS011;36992;48.200;12.418;2023-02-15T09:43:10;3.97;;;1.80;;
50976;SDS011;36992;48.200;12.418;2023-02-15T09:46:00;4.00;;;1.88;;
50976;SDS011;36992;48.200;12.418;2023-02-15T09:48:40;2.97;;;1.35;;
50976;SDS011;36992;48.200;12.418;2023-02-15T09:51:20;3.85;;;2.10;;
50976;SDS011;36992;48.200;12.418;2023-02-15T09:54:03;2.97;;;1.35;;
50976;SDS011;36992;48.200;12.418;2023-02-15T09:56:39;4.18;;;2.22;;
50976;SDS011;36992;48.200;12.418;2023-02-15T09:59:13;3.50;;;1.73;;
50976;SDS011;36992;48.200;12.418;2023-02-15T10:01:52;7.13;;;3.10;;
50976;SDS011;36992;48.200;12.418;2023-02-15T10:04:35;3.90;;;1.80;;
50976;SDS011;36992;48.200;12.418;2023-02-15T10:07:15;3.30;;;1.77;;
50976;SDS011;36992;48.200;12.418;2023-02-15T10:09:58;4.13;;;1.55;;
50976;SDS011;36992;48.200;12.418;2023-02-15T10:12:40;4.00;;;2.13;;
50976;SDS011;36992;48.200;12.418;2023-02-15T10:15:32;4.80;;;2.30;;
50976;SDS011;36992;48.200;12.418;2023-02-15T10:18:17;4.10;;;2.25;;
50976;SDS011;36992;48.200;12.418;2023-02-15T10:21:03;3.97;;;1.95;;
50976;SDS011;36992;48.200;12.418;2023-02-15T10:23:41;5.72;;;2.97;;
50976;SDS011;36992;48.200;12.418;2023-02-15T10:26:18;3.78;;;2.17;;
50976;SDS011;36992;48.200;12.418;2023-02-15T10:28:48;4.13;;;2.17;;
50976;SDS011;36992;48.200;12.418;2023-02-15T10:31:21;3.40;;;1.67;;
50976;SDS011;36992;48.200;12.418;2023-02-15T10:33:53;3.70;;;1.95;;
50976;SDS011;36992;48.200;12.418;2023-02-15T10:36:41;3.58;;;2.20;;
50976;SDS011;36992;48.200;12.418;2023-02-15T10:39:25;3.53;;;1.90;;
50976;SDS011;36992;48.200;12.418;2023-02-15T10:42:01;4.28;;;2.05;;
50976;SDS011;36992;48.200;12.418;2023-02-15T10:47:13;3.28;;;1.27;;
50976;SDS011;36992;48.200;12.418;2023-02-15T10:50:03;4.00;;;1.60;;
50976;SDS011;36992;48.200;12.418;2023-02-15T10:52:39;4.68;;;2.17;;
50976;SDS011;36992;48.200;12.418;2023-02-15T10:55:17;6.88;;;3.40;;
50976;SDS011;36992;48.200;12.418;2023-02-15T10:57:51;4.20;;;2.20;;
50976;SDS011;36992;48.200;12.418;2023-02-15T11:00:26;4.13;;;2.20;;
50976;SDS011;36992;48.200;12.418;2023-02-15T11:03:05;4.80;;;2.33;;
50976;SDS011;36992;48.200;12.418;2023-02-15T11:05:47;5.22;;;2.20;;
50976;SDS011;36992;48.200;12.418;2023-02-15T11:08:27;6.88;;;3.17;;
50976;SDS011;36992;48.200;12.418;2023-02-15T11:10:58;5.53;;;3.22;;
50976;SDS011;36992;48.200;12.418;2023-02-15T11:13:29;5.60;;;2.05;;
50976;SDS011;36992;48.200;12.418;2023-02-15T11:16:00;4.60;;;2.38;;
50976;SDS011;36992;48.200;12.418;2023-02-15T11:18:32;5.68;;;2.80;;
50976;SDS011;36992;48.200;12.418;2023-02-15T11:21:04;4.28;;;2.10;;
50976;SDS011;36992;48.200;12.418;2023-02-15T11:23:36;4.60;;;2.25;;
50976;SDS011;36992;48.200;12.418;2023-02-15T11:26:11;5.30;;;2.90;;
50976;SDS011;36992;48.200;12.418;2023-02-15T11:28:42;5.18;;;2.70;;
50976;SDS011;36992;48.200;12.418;2023-02-15T11:31:12;5.78;;;3.15;;
50976;SDS011;36992;48.200;12.418;2023-02-15T11:33:45;5.47;;;2.25;;
50976;SDS011;36992;48.200;12.418;2023-02-15T11:36:15;4.00;;;2.05;;
50976;SDS011;36992;48.200;12.418;2023-02-15T11:38:45;5.47;;;2.53;;
50976;SDS011;36992;48.200;12.418;2023-02-15T11:41:16;5.75;;;2.70;;
50976;SDS011;36992;48.200;12.418;2023-02-15T11:43:49;5.43;;;2.78;;
50976;SDS011;36992;48.200;12.418;2023-02-15T11:46:21;5.45;;;2.90;;
50976;SDS011;36992;48.200;12.418;2023-02-15T11:48:49;7.38;;;3.60;;
50976;SDS011;36992;48.200;12.418;2023-02-15T11:51:16;5.22;;;3.35;;
50976;SDS011;36992;48.200;12.418;2023-02-15T11:53:46;6.15;;;3.33;;
50976;SDS011;36992;48.200;12.418;2023-02-15T11:56:14;5.15;;;3.13;;
50976;SDS011;36992;48.200;12.418;2023-02-15T11:58:43;6.93;;;2.75;;
50976;SDS011;36992;48.200;12.418;2023-02-15T12:01:15;5.30;;;2.85;;
50976;SDS011;36992;48.200;12.418;2023-02-15T12:03:46;6.55;;;3.90;;
50976;SDS011;36992;48.200;12.418;2023-02-15T12:06:17;7.72;;;2.75;;
50976;SDS011;36992;48.200;12.418;2023-02-15T12:08:53;5.63;;;3.00;;
50976;SDS011;36992;48.200;12.418;2023-02-15T12:11:26;9.35;;;4.78;;
50976;SDS011;36992;48.200;12.418;2023-02-15T12:14:00;5.60;;;3.00;;
50976;SDS011;36992;48.200;12.418;2023-02-15T12:16:29;6.43;;;3.67;;
50976;SDS011;36992;48.200;12.418;2023-02-15T12:19:01;5.78;;;3.17;;
50976;SDS011;36992;48.200;12.418;2023-02-15T12:21:29;5.53;;;2.92;;
50976;SDS011;36992;48.200;12.418;2023-02-15T12:24:00;10.25;;;6.15;;
50976;SDS011;36992;48.200;12.418;2023-02-15T12:26:30;7.43;;;4.53;;
50976;SDS011;36992;48.200;12.418;2023-02-15T12:28:59;6.47;;;3.22;;
50976;SDS011;36992;48.200;12.418;2023-02-15T12:31:28;6.07;;;3.97;;
50976;SDS011;36992;48.200;12.418;2023-02-15T12:33:59;8.45;;;3.85;;
50976;SDS011;36992;48.200;12.418;2023-02-15T12:36:31;7.03;;;4.03;;
50976;SDS011;36992;48.200;12.418;2023-02-15T12:39:18;5.38;;;3.17;;
50976;SDS011;36992;48.200;12.418;2023-02-15T12:41:56;5.50;;;3.00;;
50976;SDS011;36992;48.200;12.418;2023-02-15T12:44:26;7.25;;;4.00;;
50976;SDS011;36992;48.200;12.418;2023-02-15T12:46:58;6.93;;;3.78;;
50976;SDS011;36992;48.200;12.418;2023-02-15T12:49:28;6.63;;;3.45;;
50976;SDS011;36992;48.200;12.418;2023-02-15T12:51:56;6.22;;;3.22;;
50976;SDS011;36992;48.200;12.418;2023-02-15T12:54:37;5.90;;;3.50;;
50976;SDS011;36992;48.200;12.418;2023-02-15T12:57:21;8.32;;;4.22;;
50976;SDS011;36992;48.200;12.418;2023-02-15T12:59:51;8.07;;;4.27;;
50976;SDS011;36992;48.200;12.418;2023-02-15T13:02:22;6.72;;;3.40;;
50976;SDS011;36992;48.200;12.418;2023-02-15T13:04:52;6.75;;;3.70;;
50976;SDS011;36992;48.200;12.418;2023-02-15T13:07:21;8.02;;;3.22;;
50976;SDS011;36992;48.200;12.418;2023-02-15T13:09:49;6.25;;;3.55;;
50976;SDS011;36992;48.200;12.418;2023-02-15T13:12:17;7.05;;;3.85;;
50976;SDS011;36992;48.200;12.418;2023-02-15T13:14:47;5.85;;;3.30;;
50976;SDS011;36992;48.200;12.418;2023-02-15T13:17:17;6.43;;;3.63;;
50976;SDS011;36992;48.200;12.418;2023-02-15T13:19:49;7.88;;;3.67;;
50976;SDS011;36992;48.200;12.418;2023-02-15T13:22:21;5.57;;;3.13;;
50976;SDS011;36992;48.200;12.418;2023-02-15T13:24:53;7.45;;;4.03;;
50976;SDS011;36992;48.200;12.418;2023-02-15T13:27:22;7.03;;;3.67;;
50976;SDS011;36992;48.200;12.418;2023-02-15T13:30:02;5.95;;;2.75;;
50976;SDS011;36992;48.200;12.418;2023-02-15T13:32:37;6.57;;;3.92;;
50976;SDS011;36992;48.200;12.418;2023-02-15T13:35:09;6.07;;;3.13;;
50976;SDS011;36992;48.200;12.418;2023-02-15T13:38:05;5.28;;;3.00;;
50976;SDS011;36992;48.200;12.418;2023-02-15T13:43:13;6.68;;;3.13;;
50976;SDS011;36992;48.200;12.418;2023-02-15T13:45:55;11.00;;;5.57;;
50976;SDS011;36992;48.200;12.418;2023-02-15T13:48:29;12.57;;;6.25;;
50976;SDS011;36992;48.200;12.418;2023-02-15T13:51:06;12.23;;;5.88;;
50976;SDS011;36992;48.200;12.418;2023-02-15T13:53:48;15.45;;;7.00;;
50976;SDS011;36992;48.200;12.418;2023-02-15T13:56:26;15.73;;;7.47;;
50976;SDS011;36992;48.200;12.418;2023-02-15T13:59:06;14.02;;;6.88;;
50976;SDS011;36992;48.200;12.418;2023-02-15T14:01:45;23.20;;;13.98;;
50976;SDS011;36992;48.200;12.418;2023-02-15T14:07:19;25.15;;;14.30;;
50976;SDS011;36992;48.200;12.418;2023-02-15T14:10:02;21.83;;;12.80;;
50976;SDS011;36992;48.200;12.418;2023-02-15T14:12:47;17.60;;;10.63;;
50976;SDS011;36992;48.200;12.418;2023-02-15T14:15:26;17.50;;;9.93;;
50976;SDS011;36992;48.200;12.418;2023-02-15T14:18:02;18.63;;;9.70;;
50976;SDS011;36992;48.200;12.418;2023-02-15T14:20:45;17.75;;;9.50;;
50976;SDS011;36992;48.200;12.418;2023-02-15T14:23:26;13.88;;;7.32;;
50976;SDS011;36992;48.200;12.418;2023-02-15T14:26:05;19.73;;;10.88;;
50976;SDS011;36992;48.200;12.418;2023-02-15T14:28:42;18.33;;;9.35;;
50976;SDS011;36992;48.200;12.418;2023-02-15T14:31:25;19.30;;;10.43;;
50976;SDS011;36992;48.200;12.418;2023-02-15T14:33:56;16.63;;;8.90;;
50976;SDS011;36992;48.200;12.418;2023-02-15T14:36:24;15.10;;;7.13;;
50976;SDS011;36992;48.200;12.418;2023-02-15T14:38:57;14.63;;;8.13;;
50976;SDS011;36992;48.200;12.418;2023-02-15T14:41:35;17.17;;;7.50;;
50976;SDS011;36992;48.200;12.418;2023-02-15T14:44:05;16.02;;;8.90;;
50976;SDS011;36992;48.200;12.418;2023-02-15T14:46:41;17.85;;;9.45;;
50976;SDS011;36992;48.200;12.418;2023-02-15T14:49:14;16.08;;;8.25;;
50976;SDS011;36992;48.200;12.418;2023-02-15T14:51:54;20.75;;;10.32;;
50976;SDS011;36992;48.200;12.418;2023-02-15T14:57:29;27.58;;;13.75;;
50976;SDS011;36992;48.200;12.418;2023-02-15T14:59:58;21.60;;;10.68;;
50976;SDS011;36992;48.200;12.418;2023-02-15T15:02:39;18.35;;;8.40;;
50976;SDS011;36992;48.200;12.418;2023-02-15T15:05:11;25.88;;;12.25;;
50976;SDS011;36992;48.200;12.418;2023-02-15T15:07:44;21.23;;;11.70;;
50976;SDS011;36992;48.200;12.418;2023-02-15T15:13:33;19.95;;;9.63;;
50976;SDS011;36992;48.200;12.418;2023-02-15T15:18:54;19.77;;;9.95;;
50976;SDS011;36992;48.200;12.418;2023-02-15T15:27:37;16.45;;;8.25;;